Du har inga inställningar för hoppväder.nu

Hoppväder.nu

Senast uppdaterat 05:44

UTC-tid

2020-01-29 kl. 04:44


Sol och måne

Solen går upp 8:16 och går ner 16:10 (beräknade cirkatider)
Nästa fullmåne blir om 11 dagar (2020-02-09)

METAR

ESOE (Örebro)
(24 minuter sedan)
ESOE 290420Z AUTO 13001KT 2700 BR VV003 03/02 Q0986 REDZ=



ESOK (Karlstad)
(24 minuter sedan)
ESOK 290420Z AUTO 10005KT 9999 OVC002/// 01/01 Q0985=



ESGR (Skövde)
(24 minuter sedan)
ESGR 290420Z AUTO 14004KT 9999 FEW021/// SCT048/// 01/01 Q0985=



ESSD (Borlänge)
(24 minuter sedan)
ESSD 290420Z AUTO 09008KT 6000 -SN VV006 01/00 Q0987=



ESOW (Västerås)
(24 minuter sedan)
ESOW 290420Z AUTO 10007KT 7000 -RA FEW007/// OVC018/// 03/02 Q0987 REDZ=



TAF

ESOE (Örebro)
(134 minuter sedan)
ESOE 290230Z 2903/2912 09005KT 9999 -RA SCT006 OVC010 TEMPO 2903/2910 2000 DZRA BR BKN004 BECMG 2906/2908 SCT020=



ESOK (Karlstad)
(74 minuter sedan)
ESOK 290330Z 2904/2912 09005KT 5000 -RA OVC002 TEMPO 2904/2906 2000 SG BECMG 2906/2907 BKN010 TEMPO 2907/2912 2500 BR BKN006=



ESGR (Skövde)
ESGR



ESSD (Borlänge)
ESSD



ESOW (Västerås)
ESOW





Kodnycklar till TAF och METAR






LHP

(Örebro är område G2a i Södra delen)

Prognos är inte uppdaterad




Spotting

Hur fungerar spotthjälpen och Vindkartan?

Markvind är ca 0 m/s.



Vindkartan

Senast uppdaterad 05:44




All data kommer från LFV.se